Harrison, Michigan
Current Conditions -  °F | °C
As of 7:53 PM on Tuesday 21 Oct 2014 (Local Time) from KHTL Reporting Station
Clear Clear  
Wind Chill: 35°   Ceiling: Unl
Heat Index: 39°   Visibility: 10mi
Dew Point: 28°   Wind: 6mph
Humidity: 65%   Direction: 30°NNE
Pressure: 30.23"   Gusts: NA
Location:  44.02°N, 84.8°W
Report Text: KHTL 212353Z AUTO 03005KT 10SM CLR 04/M02 A3023 RMK AO2 SLP247 T00391022 10111 20039 53023
Loading
Personal Weather Stations






























Interactive Weather Map
Tropical Storm Tracking
New forecast layout! Learn more

10-Day Weather Forecast

Advertisements
Track Severe Weather on mobile